createdAt,value
2024-05-09T14:41:56.874Z,79.80
2024-05-09T14:44:27.202Z,80.80
2024-05-09T14:46:54.885Z,82.90
2024-05-09T14:49:25.111Z,79.60
2024-05-09T14:51:55.235Z,78.90
2024-05-09T14:54:25.314Z,78.00
2024-05-09T14:56:52.746Z,77.30
2024-05-09T14:59:23.122Z,77.00
2024-05-09T15:01:50.718Z,78.30
2024-05-09T15:04:23.988Z,77.20
2024-05-09T15:06:51.854Z,74.50
2024-05-09T15:09:24.633Z,73.60
2024-05-09T15:11:52.248Z,73.20
2024-05-09T15:14:23.435Z,74.70
2024-05-09T15:16:50.849Z,75.00
2024-05-09T15:19:21.506Z,77.00
2024-05-09T15:21:49.156Z,78.30
2024-05-09T15:24:19.682Z,80.00
2024-05-09T15:26:51.381Z,79.90
2024-05-09T15:29:21.874Z,76.70
2024-05-09T15:31:49.572Z,77.80
2024-05-09T15:34:20.090Z,79.10
2024-05-09T15:36:51.424Z,78.40
2024-05-09T15:39:24.468Z,78.00
2024-05-09T15:41:56.465Z,79.20
2024-05-09T15:44:28.143Z,79.40
2024-05-09T15:46:56.651Z,79.10
2024-05-09T15:49:27.033Z,78.00
2024-05-09T15:51:54.858Z,75.40
2024-05-09T15:54:25.562Z,74.90
2024-05-09T15:56:55.907Z,75.50
2024-05-09T15:59:25.966Z,77.80
2024-05-09T16:01:53.456Z,77.50
2024-05-09T16:04:23.700Z,76.40
2024-05-09T16:06:51.132Z,77.40
2024-05-09T16:09:22.495Z,78.10
2024-05-09T16:11:50.061Z,78.20
2024-05-09T16:14:23.200Z,78.80
2024-05-09T16:16:51.465Z,79.20
2024-05-09T16:19:22.323Z,78.00
2024-05-09T16:21:49.991Z,76.90
2024-05-09T16:24:20.253Z,77.20
2024-05-09T16:26:47.762Z,78.10
2024-05-09T16:29:18.896Z,77.80
2024-05-09T16:31:49.069Z,76.60
2024-05-09T16:34:20.256Z,78.30
2024-05-09T16:36:47.733Z,78.30
2024-05-09T16:39:18.627Z,78.90
2024-05-09T16:41:46.177Z,79.10
2024-05-09T16:44:16.565Z,79.20
2024-05-09T16:49:17.860Z,80.60
2024-05-09T16:51:45.547Z,80.30
2024-05-09T16:54:16.573Z,79.50
2024-05-09T16:56:44.636Z,79.20
2024-05-09T16:59:15.492Z,80.10
2024-05-09T17:01:42.984Z,80.60
2024-05-09T17:04:15.554Z,81.40
2024-05-09T17:06:46.833Z,81.30
2024-05-09T17:09:19.797Z,80.60
2024-05-09T17:11:53.773Z,79.80
2024-05-09T17:14:24.331Z,80.40
2024-05-09T17:16:54.870Z,80.50
2024-05-09T17:19:25.985Z,81.00
2024-05-09T17:26:58.159Z,81.10
2024-05-09T17:29:29.095Z,81.90
2024-05-09T17:31:56.991Z,82.10
2024-05-09T17:34:28.690Z,82.10
2024-05-09T17:37:00.504Z,82.80
2024-05-09T17:39:31.068Z,83.30
